sensor_id;sensor_type;location;lat;lon;timestamp;pressure;altitude;pressure_sealevel;temperature;humidity
61710;BME280;47633;51.494;5.386;2022-11-13T00:01:21;102595.47;;;18.96;46.25
61710;BME280;47633;51.494;5.386;2022-11-13T00:03:46;102602.53;;;18.96;45.99
61710;BME280;47633;51.494;5.386;2022-11-13T00:06:13;102588.81;;;18.89;45.98
61710;BME280;47633;51.494;5.386;2022-11-13T00:08:39;102589.75;;;18.88;45.93
61710;BME280;47633;51.494;5.386;2022-11-13T00:11:07;102589.75;;;18.88;45.92
61710;BME280;47633;51.494;5.386;2022-11-13T00:13:33;102592.47;;;18.87;45.94
61710;BME280;47633;51.494;5.386;2022-11-13T00:16:04;102582.94;;;18.84;46.19
61710;BME280;47633;51.494;5.386;2022-11-13T00:18:30;102583.00;;;18.82;45.87
61710;BME280;47633;51.494;5.386;2022-11-13T00:21:06;102581.19;;;18.83;46.10
61710;BME280;47633;51.494;5.386;2022-11-13T00:23:33;102573.53;;;18.78;45.85
61710;BME280;47633;51.494;5.386;2022-11-13T00:26:28;102578.66;;;18.81;45.93
61710;BME280;47633;51.494;5.386;2022-11-13T00:28:57;102574.50;;;18.77;46.16
61710;BME280;47633;51.494;5.386;2022-11-13T00:31:22;102570.22;;;18.75;45.97
61710;BME280;47633;51.494;5.386;2022-11-13T00:33:48;102574.75;;;18.73;45.81
61710;BME280;47633;51.494;5.386;2022-11-13T00:36:17;102573.78;;;18.74;46.02
61710;BME280;47633;51.494;5.386;2022-11-13T00:38:42;102565.97;;;18.72;46.05
61710;BME280;47633;51.494;5.386;2022-11-13T00:41:08;102560.69;;;18.72;45.75
61710;BME280;47633;51.494;5.386;2022-11-13T00:43:33;102554.91;;;18.65;45.79
61710;BME280;47633;51.494;5.386;2022-11-13T00:45:58;102549.69;;;18.64;46.40
61710;BME280;47633;51.494;5.386;2022-11-13T00:48:24;102564.53;;;18.66;45.89
61710;BME280;47633;51.494;5.386;2022-11-13T00:50:50;102549.78;;;18.62;45.57
61710;BME280;47633;51.494;5.386;2022-11-13T00:53:15;102544.59;;;18.61;45.73
61710;BME280;47633;51.494;5.386;2022-11-13T00:55:42;102551.59;;;18.62;45.81
61710;BME280;47633;51.494;5.386;2022-11-13T00:58:08;102549.97;;;18.59;45.50
61710;BME280;47633;51.494;5.386;2022-11-13T01:00:33;102543.09;;;18.57;45.57
61710;BME280;47633;51.494;5.386;2022-11-13T01:02:58;102536.09;;;18.56;45.69
61710;BME280;47633;51.494;5.386;2022-11-13T01:05:25;102528.34;;;18.53;45.46
61710;BME280;47633;51.494;5.386;2022-11-13T01:07:50;102544.09;;;18.54;45.76
61710;BME280;47633;51.494;5.386;2022-11-13T01:10:16;102535.50;;;18.51;45.57
61710;BME280;47633;51.494;5.386;2022-11-13T01:12:42;102543.25;;;18.54;45.85
61710;BME280;47633;51.494;5.386;2022-11-13T01:15:07;102537.19;;;18.52;45.81
61710;BME280;47633;51.494;5.386;2022-11-13T01:17:33;102533.13;;;18.46;45.46
61710;BME280;47633;51.494;5.386;2022-11-13T01:19:58;102540.03;;;18.48;45.92
61710;BME280;47633;51.494;5.386;2022-11-13T01:22:23;102539.16;;;18.48;45.46
61710;BME280;47633;51.494;5.386;2022-11-13T01:24:49;102528.75;;;18.45;45.59
61710;BME280;47633;51.494;5.386;2022-11-13T01:27:14;102535.84;;;18.44;45.58
61710;BME280;47633;51.494;5.386;2022-11-13T01:29:40;102532.53;;;18.41;45.60
61710;BME280;47633;51.494;5.386;2022-11-13T01:32:06;102542.91;;;18.44;45.50
61710;BME280;47633;51.494;5.386;2022-11-13T01:34:31;102535.94;;;18.43;45.55
61710;BME280;47633;51.494;5.386;2022-11-13T01:36:56;102519.59;;;18.36;45.25
61710;BME280;47633;51.494;5.386;2022-11-13T01:39:22;102534.22;;;18.42;45.34
61710;BME280;47633;51.494;5.386;2022-11-13T01:41:47;102538.72;;;18.40;45.42
61710;BME280;47633;51.494;5.386;2022-11-13T01:44:14;102536.94;;;18.40;45.32
61710;BME280;47633;51.494;5.386;2022-11-13T01:46:44;102531.00;;;18.37;45.31
61710;BME280;47633;51.494;5.386;2022-11-13T01:49:14;102535.34;;;18.38;45.51
61710;BME280;47633;51.494;5.386;2022-11-13T01:51:49;102523.91;;;18.37;45.43
61710;BME280;47633;51.494;5.386;2022-11-13T01:54:24;102524.88;;;18.36;45.32
61710;BME280;47633;51.494;5.386;2022-11-13T01:56:51;102513.63;;;18.33;45.27
61710;BME280;47633;51.494;5.386;2022-11-13T01:59:20;102510.22;;;18.30;45.36
61710;BME280;47633;51.494;5.386;2022-11-13T02:01:47;102504.94;;;18.30;45.20
61710;BME280;47633;51.494;5.386;2022-11-13T02:04:12;102496.16;;;18.30;45.06
61710;BME280;47633;51.494;5.386;2022-11-13T02:06:53;102501.44;;;18.30;45.28
61710;BME280;47633;51.494;5.386;2022-11-13T02:09:23;102495.34;;;18.29;45.24
61710;BME280;47633;51.494;5.386;2022-11-13T02:11:51;102497.28;;;18.26;45.13
61710;BME280;47633;51.494;5.386;2022-11-13T02:14:18;102490.06;;;18.29;45.11
61710;BME280;47633;51.494;5.386;2022-11-13T02:16:46;102491.72;;;18.30;45.01
61710;BME280;47633;51.494;5.386;2022-11-13T02:19:16;102479.66;;;18.26;45.08
61710;BME280;47633;51.494;5.386;2022-11-13T02:21:52;102467.47;;;18.24;45.17
61710;BME280;47633;51.494;5.386;2022-11-13T02:24:27;102479.31;;;18.33;44.85
61710;BME280;47633;51.494;5.386;2022-11-13T02:26:55;102477.53;;;18.33;44.81
61710;BME280;47633;51.494;5.386;2022-11-13T02:29:22;102476.69;;;18.33;44.92
61710;BME280;47633;51.494;5.386;2022-11-13T02:31:47;102482.72;;;18.35;45.13
61710;BME280;47633;51.494;5.386;2022-11-13T02:34:13;102474.03;;;18.33;44.82
61710;BME280;47633;51.494;5.386;2022-11-13T02:36:38;102466.28;;;18.29;44.87
61710;BME280;47633;51.494;5.386;2022-11-13T02:39:09;102475.81;;;18.32;44.70
61710;BME280;47633;51.494;5.386;2022-11-13T02:41:34;102471.50;;;18.31;44.71
61710;BME280;47633;51.494;5.386;2022-11-13T02:44:02;102447.56;;;18.18;44.64
61710;BME280;47633;51.494;5.386;2022-11-13T02:46:28;102460.06;;;18.30;44.80
61710;BME280;47633;51.494;5.386;2022-11-13T02:48:53;102459.47;;;18.25;44.46
61710;BME280;47633;51.494;5.386;2022-11-13T02:51:18;102460.31;;;18.26;44.92
61710;BME280;47633;51.494;5.386;2022-11-13T02:53:44;102452.50;;;18.24;44.71
61710;BME280;47633;51.494;5.386;2022-11-13T02:56:09;102455.03;;;18.26;44.78
61710;BME280;47633;51.494;5.386;2022-11-13T02:58:34;102458.63;;;18.25;44.65
61710;BME280;47633;51.494;5.386;2022-11-13T03:01:01;102444.00;;;18.19;44.57
61710;BME280;47633;51.494;5.386;2022-11-13T03:03:27;102450.97;;;18.20;44.81
61710;BME280;47633;51.494;5.386;2022-11-13T03:05:52;102451.81;;;18.21;44.60
61710;BME280;47633;51.494;5.386;2022-11-13T03:08:18;102450.03;;;18.21;44.46
61710;BME280;47633;51.494;5.386;2022-11-13T03:10:44;102454.47;;;18.21;44.51
61710;BME280;47633;51.494;5.386;2022-11-13T03:13:09;102444.00;;;18.19;44.38
61710;BME280;47633;51.494;5.386;2022-11-13T03:15:34;102439.75;;;18.17;44.39
61710;BME280;47633;51.494;5.386;2022-11-13T03:18:04;102431.06;;;18.15;44.61
61710;BME280;47633;51.494;5.386;2022-11-13T03:20:30;102433.53;;;18.18;44.35
61710;BME280;47633;51.494;5.386;2022-11-13T03:22:55;102429.38;;;18.13;44.63
61710;BME280;47633;51.494;5.386;2022-11-13T03:25:21;102434.47;;;18.17;44.55
61710;BME280;47633;51.494;5.386;2022-11-13T03:27:46;102431.06;;;18.15;44.39
61710;BME280;47633;51.494;5.386;2022-11-13T03:30:11;102428.59;;;18.11;44.90
61710;BME280;47633;51.494;5.386;2022-11-13T03:32:37;102428.41;;;18.15;44.71
61710;BME280;47633;51.494;5.386;2022-11-13T03:35:02;102430.22;;;18.14;44.66
61710;BME280;47633;51.494;5.386;2022-11-13T03:37:27;102416.50;;;18.07;44.46
61710;BME280;47633;51.494;5.386;2022-11-13T03:39:53;102424.19;;;18.12;44.35
61710;BME280;47633;51.494;5.386;2022-11-13T03:42:18;102419.91;;;18.09;44.59
61710;BME280;47633;51.494;5.386;2022-11-13T03:44:44;102423.31;;;18.11;44.83
61710;BME280;47633;51.494;5.386;2022-11-13T03:47:09;102415.38;;;18.11;44.70
61710;BME280;47633;51.494;5.386;2022-11-13T03:49:34;102411.81;;;18.12;44.93
61710;BME280;47633;51.494;5.386;2022-11-13T03:51:59;102400.69;;;18.07;44.94
61710;BME280;47633;51.494;5.386;2022-11-13T03:54:24;102412.66;;;18.13;44.81
61710;BME280;47633;51.494;5.386;2022-11-13T03:56:50;102404.09;;;18.09;44.98
61710;BME280;47633;51.494;5.386;2022-11-13T03:59:15;102401.19;;;18.14;44.70
61710;BME280;47633;51.494;5.386;2022-11-13T04:01:40;102396.09;;;18.11;44.69
61710;BME280;47633;51.494;5.386;2022-11-13T04:04:05;102397.63;;;18.15;44.74
61710;BME280;47633;51.494;5.386;2022-11-13T04:06:31;102398.47;;;18.16;44.43
61710;BME280;47633;51.494;5.386;2022-11-13T04:08:56;102387.16;;;18.13;44.44
61710;BME280;47633;51.494;5.386;2022-11-13T04:11:21;102385.44;;;18.12;44.68
61710;BME280;47633;51.494;5.386;2022-11-13T04:13:47;102391.47;;;18.15;44.64
61710;BME280;47633;51.494;5.386;2022-11-13T04:16:12;102385.44;;;18.12;44.49
61710;BME280;47633;51.494;5.386;2022-11-13T04:18:37;102381.88;;;18.13;44.62
61710;BME280;47633;51.494;5.386;2022-11-13T04:21:03;102373.09;;;18.13;44.75
61710;BME280;47633;51.494;5.386;2022-11-13T04:23:29;102386.97;;;18.17;44.79
61710;BME280;47633;51.494;5.386;2022-11-13T04:25:55;102378.94;;;18.18;44.85
61710;BME280;47633;51.494;5.386;2022-11-13T04:28:21;102374.81;;;18.14;44.48
61710;BME280;47633;51.494;5.386;2022-11-13T04:30:46;102377.25;;;18.17;44.95
61710;BME280;47633;51.494;5.386;2022-11-13T04:33:11;102366.03;;;18.13;44.76
61710;BME280;47633;51.494;5.386;2022-11-13T04:35:37;102366.88;;;18.14;44.21
61710;BME280;47633;51.494;5.386;2022-11-13T04:38:03;102365.09;;;18.15;44.41
61710;BME280;47633;51.494;5.386;2022-11-13T04:40:28;102368.59;;;18.15;44.49
61710;BME280;47633;51.494;5.386;2022-11-13T04:42:53;102356.50;;;18.11;44.55
61710;BME280;47633;51.494;5.386;2022-11-13T04:45:21;102363.22;;;18.17;44.59
61710;BME280;47633;51.494;5.386;2022-11-13T04:47:47;102360.59;;;18.17;44.45
61710;BME280;47633;51.494;5.386;2022-11-13T04:50:14;102351.22;;;18.11;44.63
61710;BME280;47633;51.494;5.386;2022-11-13T04:52:39;102355.50;;;18.13;44.10
61710;BME280;47633;51.494;5.386;2022-11-13T04:55:05;102344.75;;;18.01;44.37
61710;BME280;47633;51.494;5.386;2022-11-13T04:57:30;102366.13;;;18.12;44.37
61710;BME280;47633;51.494;5.386;2022-11-13T04:59:56;102366.88;;;18.14;44.15
61710;BME280;47633;51.494;5.386;2022-11-13T05:02:22;102355.66;;;18.10;44.21
61710;BME280;47633;51.494;5.386;2022-11-13T05:04:47;102366.03;;;18.13;44.10
61710;BME280;47633;51.494;5.386;2022-11-13T05:07:12;102359.22;;;18.09;44.23
61710;BME280;47633;51.494;5.386;2022-11-13T05:09:37;102368.06;;;18.08;43.96
61710;BME280;47633;51.494;5.386;2022-11-13T05:12:03;102367.06;;;18.11;43.94
61710;BME280;47633;51.494;5.386;2022-11-13T05:14:35;102358.56;;;18.06;44.14
61710;BME280;47633;51.494;5.386;2022-11-13T05:17:00;102362.72;;;18.10;44.09
61710;BME280;47633;51.494;5.386;2022-11-13T05:19:26;102362.03;;;18.06;43.83
61710;BME280;47633;51.494;5.386;2022-11-13T05:21:51;102357.78;;;18.04;43.90
61710;BME280;47633;51.494;5.386;2022-11-13T05:24:16;102357.69;;;18.05;44.31
61710;BME280;47633;51.494;5.386;2022-11-13T05:26:41;102358.72;;;18.03;44.08
61710;BME280;47633;51.494;5.386;2022-11-13T05:29:07;102346.56;;;18.00;44.00
61710;BME280;47633;51.494;5.386;2022-11-13T05:31:32;102348.34;;;18.00;43.96
61710;BME280;47633;51.494;5.386;2022-11-13T05:33:57;102339.59;;;17.99;43.73
61710;BME280;47633;51.494;5.386;2022-11-13T05:36:22;102341.09;;;18.03;44.18
61710;BME280;47633;51.494;5.386;2022-11-13T05:38:48;102325.53;;;17.99;44.20
61710;BME280;47633;51.494;5.386;2022-11-13T05:41:19;102344.59;;;18.04;44.04
61710;BME280;47633;51.494;5.386;2022-11-13T05:43:45;102336.00;;;18.00;43.87
61710;BME280;47633;51.494;5.386;2022-11-13T05:46:19;102353.47;;;18.03;43.83
61710;BME280;47633;51.494;5.386;2022-11-13T05:48:46;102338.81;;;17.97;43.77
61710;BME280;47633;51.494;5.386;2022-11-13T05:51:17;102353.72;;;17.98;43.76
61710;BME280;47633;51.494;5.386;2022-11-13T05:53:43;102351.91;;;17.99;43.81
61710;BME280;47633;51.494;5.386;2022-11-13T05:58:36;102344.34;;;17.92;43.82
61710;BME280;47633;51.494;5.386;2022-11-13T06:01:07;102352.97;;;17.96;43.39
61710;BME280;47633;51.494;5.386;2022-11-13T06:03:33;102344.34;;;17.92;43.51
61710;BME280;47633;51.494;5.386;2022-11-13T06:05:58;102340.97;;;17.90;43.40
61710;BME280;47633;51.494;5.386;2022-11-13T06:08:24;102345.22;;;17.93;43.68
61710;BME280;47633;51.494;5.386;2022-11-13T06:10:50;102343.44;;;17.93;43.40
61710;BME280;47633;51.494;5.386;2022-11-13T06:13:15;102335.34;;;17.97;43.67
61710;BME280;47633;51.494;5.386;2022-11-13T06:15:41;102330.91;;;17.97;44.23
61710;BME280;47633;51.494;5.386;2022-11-13T06:18:06;102326.28;;;18.01;44.31
61710;BME280;47633;51.494;5.386;2022-11-13T06:20:35;102325.38;;;18.02;44.28
61710;BME280;47633;51.494;5.386;2022-11-13T06:23:01;102328.50;;;18.08;44.34
61710;BME280;47633;51.494;5.386;2022-11-13T06:25:27;102316.00;;;18.12;44.61
61710;BME280;47633;51.494;5.386;2022-11-13T06:27:52;102312.50;;;18.11;44.75
61710;BME280;47633;51.494;5.386;2022-11-13T06:30:18;102317.41;;;18.18;44.80
61710;BME280;47633;51.494;5.386;2022-11-13T06:32:43;102315.53;;;18.20;44.70
61710;BME280;47633;51.494;5.386;2022-11-13T06:35:09;102316.03;;;18.26;44.53
61710;BME280;47633;51.494;5.386;2022-11-13T06:37:34;102306.31;;;18.27;44.54
61710;BME280;47633;51.494;5.386;2022-11-13T06:39:59;102306.16;;;18.30;44.68
61710;BME280;47633;51.494;5.386;2022-11-13T06:42:25;102310.03;;;18.39;44.63
61710;BME280;47633;51.494;5.386;2022-11-13T06:44:51;102296.81;;;18.39;44.40
61710;BME280;47633;51.494;5.386;2022-11-13T06:47:16;102302.78;;;18.42;44.42
61710;BME280;47633;51.494;5.386;2022-11-13T06:49:41;102305.25;;;18.45;44.45
61710;BME280;47633;51.494;5.386;2022-11-13T06:52:06;102302.59;;;18.45;44.20
61710;BME280;47633;51.494;5.386;2022-11-13T06:54:32;102299.00;;;18.46;44.46
61710;BME280;47633;51.494;5.386;2022-11-13T06:56:57;102310.13;;;18.52;44.42
61710;BME280;47633;51.494;5.386;2022-11-13T06:59:22;102296.28;;;18.48;44.27
61710;BME280;47633;51.494;5.386;2022-11-13T07:01:49;102288.72;;;18.42;44.18
61710;BME280;47633;51.494;5.386;2022-11-13T07:04:15;102299.56;;;18.52;44.49
61710;BME280;47633;51.494;5.386;2022-11-13T07:06:40;102307.31;;;18.55;44.26
61710;BME280;47633;51.494;5.386;2022-11-13T07:09:05;102305.44;;;18.57;44.07
61710;BME280;47633;51.494;5.386;2022-11-13T07:11:30;102308.00;;;18.58;44.01
61710;BME280;47633;51.494;5.386;2022-11-13T07:13:55;102305.28;;;18.60;44.01
61710;BME280;47633;51.494;5.386;2022-11-13T07:16:21;102299.13;;;18.59;44.17
61710;BME280;47633;51.494;5.386;2022-11-13T07:18:51;102297.44;;;18.58;44.08
61710;BME280;47633;51.494;5.386;2022-11-13T07:21:16;102300.81;;;18.60;44.15
61710;BME280;47633;51.494;5.386;2022-11-13T07:23:42;102304.22;;;18.62;44.34
61710;BME280;47633;51.494;5.386;2022-11-13T07:26:10;102311.13;;;18.65;43.99
61710;BME280;47633;51.494;5.386;2022-11-13T07:28:36;102300.56;;;18.65;43.98
61710;BME280;47633;51.494;5.386;2022-11-13T07:31:02;102289.34;;;18.61;43.90
61710;BME280;47633;51.494;5.386;2022-11-13T07:33:27;102288.38;;;18.62;43.88
61710;BME280;47633;51.494;5.386;2022-11-13T07:35:54;102290.19;;;18.62;43.86
61710;BME280;47633;51.494;5.386;2022-11-13T07:38:19;102291.97;;;18.61;44.06
61710;BME280;47633;51.494;5.386;2022-11-13T07:40:44;102298.75;;;18.65;43.93
61710;BME280;47633;51.494;5.386;2022-11-13T07:43:10;102294.53;;;18.63;43.78
61710;BME280;47633;51.494;5.386;2022-11-13T07:45:35;102289.25;;;18.63;43.70
61710;BME280;47633;51.494;5.386;2022-11-13T07:48:01;102288.38;;;18.62;43.74
61710;BME280;47633;51.494;5.386;2022-11-13T07:50:28;102287.25;;;18.66;43.63
61710;BME280;47633;51.494;5.386;2022-11-13T07:52:56;102289.25;;;18.63;43.65
61710;BME280;47633;51.494;5.386;2022-11-13T07:55:21;102288.19;;;18.65;43.40
61710;BME280;47633;51.494;5.386;2022-11-13T07:57:46;102289.16;;;18.64;43.76
61710;BME280;47633;51.494;5.386;2022-11-13T08:00:12;102284.81;;;18.63;43.54
61710;BME280;47633;51.494;5.386;2022-11-13T08:02:37;102286.59;;;18.63;43.57
61710;BME280;47633;51.494;5.386;2022-11-13T08:05:03;102281.50;;;18.60;42.64
61710;BME280;47633;51.494;5.386;2022-11-13T08:07:28;102288.28;;;18.64;42.59
61710;BME280;47633;51.494;5.386;2022-11-13T08:09:53;102292.72;;;18.63;42.76
61710;BME280;47633;51.494;5.386;2022-11-13T08:12:19;102282.25;;;18.62;42.70
61710;BME280;47633;51.494;5.386;2022-11-13T08:14:44;102286.31;;;18.67;43.15
61710;BME280;47633;51.494;5.386;2022-11-13T08:17:09;102283.78;;;18.66;43.13
61710;BME280;47633;51.494;5.386;2022-11-13T08:19:34;102277.34;;;18.70;43.19
61710;BME280;47633;51.494;5.386;2022-11-13T08:22:00;102270.47;;;18.67;43.16
61710;BME280;47633;51.494;5.386;2022-11-13T08:24:25;102275.63;;;18.69;43.42
61710;BME280;47633;51.494;5.386;2022-11-13T08:26:50;102285.09;;;18.73;43.57
61710;BME280;47633;51.494;5.386;2022-11-13T08:29:15;102282.63;;;18.70;42.37
61710;BME280;47633;51.494;5.386;2022-11-13T08:31:41;102270.56;;;18.66;43.56
61710;BME280;47633;51.494;5.386;2022-11-13T08:34:06;102275.75;;;18.67;43.76
61710;BME280;47633;51.494;5.386;2022-11-13T08:36:31;102279.16;;;18.70;43.55
61710;BME280;47633;51.494;5.386;2022-11-13T08:38:56;102270.25;;;18.71;43.78
61710;BME280;47633;51.494;5.386;2022-11-13T08:41:22;102262.25;;;18.72;43.91
61710;BME280;47633;51.494;5.386;2022-11-13T08:43:47;102262.06;;;18.75;44.23
61710;BME280;47633;51.494;5.386;2022-11-13T08:46:12;102266.13;;;18.81;44.37
61710;BME280;47633;51.494;5.386;2022-11-13T08:48:37;102262.47;;;18.83;44.50
61710;BME280;47633;51.494;5.386;2022-11-13T08:51:03;102268.44;;;18.87;44.54
61710;BME280;47633;51.494;5.386;2022-11-13T08:53:28;102264.91;;;18.87;44.61
61710;BME280;47633;51.494;5.386;2022-11-13T08:55:53;102257.00;;;18.87;44.47
61710;BME280;47633;51.494;5.386;2022-11-13T08:58:19;102266.44;;;18.91;44.51
61710;BME280;47633;51.494;5.386;2022-11-13T09:00:44;102263.69;;;18.92;44.73
61710;BME280;47633;51.494;5.386;2022-11-13T09:03:10;102259.16;;;18.94;45.40
61710;BME280;47633;51.494;5.386;2022-11-13T09:05:37;102257.19;;;18.98;45.85
61710;BME280;47633;51.494;5.386;2022-11-13T09:08:03;102259.75;;;18.99;46.25
61710;BME280;47633;51.494;5.386;2022-11-13T09:10:28;102263.69;;;19.07;46.22
61710;BME280;47633;51.494;5.386;2022-11-13T09:12:58;102264.44;;;19.09;46.43
61710;BME280;47633;51.494;5.386;2022-11-13T09:15:24;102254.91;;;19.06;46.39
61710;BME280;47633;51.494;5.386;2022-11-13T09:17:49;102252.81;;;19.11;46.36
61710;BME280;47633;51.494;5.386;2022-11-13T09:20:15;102252.72;;;19.13;46.15
61710;BME280;47633;51.494;5.386;2022-11-13T09:22:40;102241.41;;;19.11;46.19
61710;BME280;47633;51.494;5.386;2022-11-13T09:25:06;102249.34;;;19.11;46.25
61710;BME280;47633;51.494;5.386;2022-11-13T09:27:31;102235.16;;;19.12;46.26
61710;BME280;47633;51.494;5.386;2022-11-13T09:29:56;102233.31;;;19.14;46.53
61710;BME280;47633;51.494;5.386;2022-11-13T09:32:22;102237.63;;;19.15;46.72
61710;BME280;47633;51.494;5.386;2022-11-13T09:34:47;102238.59;;;19.14;46.39
61710;BME280;47633;51.494;5.386;2022-11-13T09:37:14;102247.25;;;19.16;46.27
61710;BME280;47633;51.494;5.386;2022-11-13T09:39:39;102237.53;;;19.16;46.35
61710;BME280;47633;51.494;5.386;2022-11-13T09:42:16;102244.81;;;19.13;46.47
61710;BME280;47633;51.494;5.386;2022-11-13T09:44:49;102245.94;;;19.09;46.67
61710;BME280;47633;51.494;5.386;2022-11-13T09:47:23;102235.16;;;19.12;46.23
61710;BME280;47633;51.494;5.386;2022-11-13T09:49:57;102235.84;;;19.15;45.86
61710;BME280;47633;51.494;5.386;2022-11-13T09:52:30;102247.81;;;19.21;46.04
61710;BME280;47633;51.494;5.386;2022-11-13T09:54:57;102236.94;;;19.26;46.08
61710;BME280;47633;51.494;5.386;2022-11-13T10:00:12;102250.31;;;19.37;45.83
61710;BME280;47633;51.494;5.386;2022-11-13T10:03:12;102231.81;;;19.37;45.49
61710;BME280;47633;51.494;5.386;2022-11-13T10:09:02;102227.16;;;19.40;45.38
61710;BME280;47633;51.494;5.386;2022-11-13T10:11:46;102232.44;;;19.40;45.11
61710;BME280;47633;51.494;5.386;2022-11-13T10:16:55;102234.50;;;19.50;45.08
61710;BME280;47633;51.494;5.386;2022-11-13T10:19:52;102238.75;;;19.52;44.79
61710;BME280;47633;51.494;5.386;2022-11-13T10:22:33;102231.56;;;19.54;44.73
61710;BME280;47633;51.494;5.386;2022-11-13T10:25:08;102227.97;;;19.55;45.09
61710;BME280;47633;51.494;5.386;2022-11-13T10:27:36;102225.63;;;19.51;44.92
61710;BME280;47633;51.494;5.386;2022-11-13T10:30:02;102216.75;;;19.52;44.88
61710;BME280;47633;51.494;5.386;2022-11-13T10:32:30;102220.69;;;19.59;44.98
61710;BME280;47633;51.494;5.386;2022-11-13T10:38:05;102213.28;;;19.64;44.68
61710;BME280;47633;51.494;5.386;2022-11-13T10:40:33;102196.69;;;19.62;44.80
61710;BME280;47633;51.494;5.386;2022-11-13T10:43:12;102203.56;;;19.65;44.87
61710;BME280;47633;51.494;5.386;2022-11-13T10:45:42;102200.16;;;19.63;44.55
61710;BME280;47633;51.494;5.386;2022-11-13T10:48:25;102196.69;;;19.62;44.69
61710;BME280;47633;51.494;5.386;2022-11-13T10:51:00;102190.44;;;19.63;44.64
61710;BME280;47633;51.494;5.386;2022-11-13T10:53:32;102179.19;;;19.60;44.77
61710;BME280;47633;51.494;5.386;2022-11-13T10:56:11;102179.78;;;19.65;44.65
61710;BME280;47633;51.494;5.386;2022-11-13T10:58:36;102177.97;;;19.65;44.53
61710;BME280;47633;51.494;5.386;2022-11-13T11:01:12;102178.69;;;19.67;44.62
61710;BME280;47633;51.494;5.386;2022-11-13T11:03:47;102168.22;;;19.66;44.61
61710;BME280;47633;51.494;5.386;2022-11-13T11:06:14;102161.06;;;19.68;44.82
61710;BME280;47633;51.494;5.386;2022-11-13T11:08:39;102149.91;;;19.63;44.55
61710;BME280;47633;51.494;5.386;2022-11-13T11:11:14;102162.81;;;19.67;43.78
61710;BME280;47633;51.494;5.386;2022-11-13T11:14:25;102159.84;;;19.59;44.53
61710;BME280;47633;51.494;5.386;2022-11-13T11:16:52;102155.41;;;19.60;44.42
61710;BME280;47633;51.494;5.386;2022-11-13T11:19:21;102156.28;;;19.60;44.56
61710;BME280;47633;51.494;5.386;2022-11-13T11:21:52;102165.69;;;19.64;44.31
61710;BME280;47633;51.494;5.386;2022-11-13T11:24:26;102162.94;;;19.66;44.61
61710;BME280;47633;51.494;5.386;2022-11-13T11:27:02;102163.13;;;19.63;44.60
61710;BME280;47633;51.494;5.386;2022-11-13T11:29:33;102160.69;;;19.60;44.77
61710;BME280;47633;51.494;5.386;2022-11-13T11:34:47;102144.19;;;19.56;44.65
61710;BME280;47633;51.494;5.386;2022-11-13T11:37:16;102137.31;;;19.53;44.82
61710;BME280;47633;51.494;5.386;2022-11-13T11:39:46;102143.16;;;19.58;44.85
61710;BME280;47633;51.494;5.386;2022-11-13T11:42:31;102138.06;;;19.55;44.86
61710;BME280;47633;51.494;5.386;2022-11-13T11:45:24;102133.72;;;19.54;44.82
61710;BME280;47633;51.494;5.386;2022-11-13T11:47:50;102124.53;;;19.47;44.99
61710;BME280;47633;51.494;5.386;2022-11-13T11:50:28;102113.06;;;19.47;45.03
61710;BME280;47633;51.494;5.386;2022-11-13T11:52:59;102116.78;;;19.44;44.74
61710;BME280;47633;51.494;5.386;2022-11-13T11:56:11;102117.31;;;19.49;45.12
61710;BME280;47633;51.494;5.386;2022-11-13T12:07:15;102097.44;;;19.56;44.66
61710;BME280;47633;51.494;5.386;2022-11-13T12:09:59;102099.03;;;19.59;44.74
61710;BME280;47633;51.494;5.386;2022-11-13T12:23:38;102064.44;;;19.49;44.24
61710;BME280;47633;51.494;5.386;2022-11-13T12:28:56;102057.78;;;19.56;44.27
61710;BME280;47633;51.494;5.386;2022-11-13T12:36:47;102041.91;;;19.56;44.32
61710;BME280;47633;51.494;5.386;2022-11-13T12:39:35;102029.97;;;19.51;44.25
61710;BME280;47633;51.494;5.386;2022-11-13T12:42:12;102027.63;;;19.59;44.19
61710;BME280;47633;51.494;5.386;2022-11-13T12:47:35;102022.34;;;19.59;44.31
61710;BME280;47633;51.494;5.386;2022-11-13T12:50:22;102025.41;;;19.66;44.37
61710;BME280;47633;51.494;5.386;2022-11-13T12:53:23;102027.00;;;19.68;44.49
61710;BME280;47633;51.494;5.386;2022-11-13T12:55:55;102017.38;;;19.67;44.52
61710;BME280;47633;51.494;5.386;2022-11-13T12:58:26;102014.41;;;19.72;44.50
61710;BME280;47633;51.494;5.386;2022-11-13T13:00:56;102011.75;;;19.72;44.60
61710;BME280;47633;51.494;5.386;2022-11-13T13:12:02;101992.75;;;19.80;44.34
61710;BME280;47633;51.494;5.386;2022-11-13T13:14:39;101988.94;;;19.84;44.44
61710;BME280;47633;51.494;5.386;2022-11-13T13:17:22;101975.16;;;19.91;44.25
61710;BME280;47633;51.494;5.386;2022-11-13T13:20:04;101977.91;;;20.03;44.12
61710;BME280;47633;51.494;5.386;2022-11-13T13:22:34;101971.81;;;20.14;44.00
61710;BME280;47633;51.494;5.386;2022-11-13T13:25:06;101964.53;;;20.17;43.73
61710;BME280;47633;51.494;5.386;2022-11-13T13:27:56;101950.59;;;20.26;43.45
61710;BME280;47633;51.494;5.386;2022-11-13T13:30:23;101956.75;;;20.51;43.33
61710;BME280;47633;51.494;5.386;2022-11-13T13:35:50;101943.59;;;21.09;41.99
61710;BME280;47633;51.494;5.386;2022-11-13T13:38:39;101932.03;;;21.22;41.32
61710;BME280;47633;51.494;5.386;2022-11-13T13:41:15;101923.03;;;21.35;40.99
61710;BME280;47633;51.494;5.386;2022-11-13T13:43:54;101915.31;;;21.32;40.66
61710;BME280;47633;51.494;5.386;2022-11-13T13:46:23;101929.75;;;21.17;41.34
61710;BME280;47633;51.494;5.386;2022-11-13T13:48:54;101934.41;;;20.91;41.96
61710;BME280;47633;51.494;5.386;2022-11-13T13:51:30;101917.69;;;20.66;42.55
61710;BME280;47633;51.494;5.386;2022-11-13T13:53:59;101925.47;;;20.56;42.70
61710;BME280;47633;51.494;5.386;2022-11-13T13:56:26;101919.63;;;20.40;43.08